VMC weather

Villas Mar de Cortez Airport
Ensenada, Baja California, Mexico

Public forecast

Using degrees Celsius for public forecast. Weather courtesy of forecast.io.

Closest aviation weather report (METAR) to Villas Mar de Cortez Airport

Closest report is (Old) Puerto PeƱasco Airport, 104.2 nm (193.0 km) NNE. Retrieved UTC (0 seconds ago):

Closest aviation forecast (TAF) to Villas Mar de Cortez Airport

Forecast is more than 6 hours old.

Closest forecast is General Ignacio P. Garcia International Airport, 180.3 nm (333.9 km) ESE. Retrieved 2019/12/15 06:50 UTC (6 hours ago):

TAF MMHO 150441Z 1506/1606 00000KT P6SM SKC FM151800 24008KT P6SM SKC FM160200 24005KT P6SM SKC